Terminal Aerodrome Forecast
Issued by NWS

Home | Current Version | Previous Version | Text Only | Print | Product List | Glossary On
Versions: 1 2 3 4 5 6 7 8 9 10 11 12 13 14 15 16 17 18 19 20
000
FTUS45 KBOU 170520
TAFAPA
TAF
KAPA 170520Z 1706/1806 23015G24KT P6SM SCT120 BKN220
     FM171800 28020G30KT P6SM FEW120 BKN220
     FM180000 36018G30KT P6SM BKN080 PROB30 1800/1804 -SHRA OVC050=

USA.gov is the U.S. government's official web portal to all federal, state and local government web resources and services.